Weather observations for the past three days for
Frelighsburg
| Date | Time (edt) | Wind (mph) | Vis. (mi.) | Weather | Sky Cond. | Temperature (ºF) | Relative Humidity | Wind Chill (°F) | Heat Index (°F) | Pressure | Precipitation (in) | ||||||
|---|---|---|---|---|---|---|---|---|---|---|---|---|---|---|---|---|---|
| Air | Dwpt | 6 hour | altimeter (in) | sea level (mb) | 1 hr | 3 hr | 6 hr | ||||||||||
| Max. | Min. | ||||||||||||||||
| 02 | 13:00 | NW 3 | 0.00 | NULL | NULL | 42.8 | 37 | 80% | 0 | 1011.6 | |||||||
| 02 | 12:00 | NW 5 | 0.00 | NULL | NULL | 41 | 37.9 | 89% | 38 | 0 | 1011.9 | ||||||
| 02 | 11:00 | NW 3 | 0.00 | NULL | NULL | 40.8 | 38.1 | 90% | 0 | 1012.2 | |||||||
| 02 | 10:00 | NW 3 | 0.00 | NULL | NULL | 41.2 | 38.1 | 89% | 0 | 1012.3 | |||||||
| 02 | 09:00 | N 5 | 0.00 | NULL | NULL | 41.2 | 35.4 | 80% | 39 | 0 | 1012.3 | ||||||
| 02 | 08:00 | NW 2 | 0.00 | NULL | NULL | 40.5 | 37.6 | 90% | 0 | 1012.3 | 0.01 | ||||||
| 02 | 07:00 | S 1 | 0.00 | NULL | NULL | 39.4 | 36.7 | 90% | 0 | 1012.1 | 0.01 | ||||||
| 02 | 06:00 | Calm | 0.00 | NULL | NULL | 39.6 | 34.7 | 83% | 0 | 1012.0 | 0.01 | ||||||
| 02 | 05:00 | NW 2 | 0.00 | NULL | NULL | 40.3 | 34.2 | 79% | 0 | 1011.8 | 0.01 | ||||||
| 02 | 04:00 | W 2 | 0.00 | NULL | NULL | 42.4 | 30.6 | 63% | 0 | 1011.7 | |||||||
| 02 | 03:00 | SW 1 | 0.00 | NULL | NULL | 42.3 | 27.9 | 57% | 0 | 1011.5 | |||||||
| 02 | 02:00 | S 3 | 0.00 | NULL | NULL | 42.1 | 29.3 | 61% | 0 | 1011.4 | |||||||
| 02 | 01:00 | SE 3 | 0.00 | NULL | NULL | 42.1 | 29.3 | 61% | 0 | 1011.5 | |||||||
| 02 | 00:00 | S 3 | 0.00 | NULL | NULL | 42.6 | 26.6 | 53% | 0 | 1011.5 | |||||||
| 01 | 23:00 | NW 1 | 0.00 | NULL | NULL | 43.9 | 26.1 | 50% | 0 | 1011.5 | |||||||
| 01 | 22:00 | NW 1 | 0.00 | NULL | NULL | 44.8 | 26.4 | 49% | 0 | 1011.8 | |||||||
| 01 | 21:00 | W 1 | 0.00 | NULL | NULL | 45.1 | 26.4 | 48% | 0 | 1011.7 | |||||||
| 01 | 20:00 | NW 2 | 0.00 | NULL | NULL | 46.9 | 25.2 | 43% | 0 | 1011.4 | |||||||
| 01 | 19:00 | NW 5 | 0.00 | NULL | NULL | 48.9 | 25.5 | 40% | 48 | 0 | 1010.9 | ||||||
| 01 | 18:00 | W 5 | 0.00 | NULL | NULL | 49.8 | 23.4 | 35% | 49 | 0 | 1010.9 | ||||||
| 01 | 17:00 | N 10 G 17 | 0.00 | NULL | NULL | 50.4 | 25.5 | 38% | 0 | 1010.7 | |||||||
| 01 | 16:00 | W 6 | 0.00 | NULL | NULL | 50.5 | 26.2 | 39% | 0 | 1010.9 | |||||||
| 01 | 15:00 | W 6 G 20 | 0.00 | NULL | NULL | 49.6 | 26.6 | 41% | 48 | 0 | 1011.2 | ||||||
| 01 | 14:00 | NW 6 | 0.00 | NULL | NULL | 47.8 | 26.4 | 43% | 46 | 0 | 1011.4 | ||||||
| 01 | 13:00 | NW 8 | 0.00 | NULL | NULL | 45.7 | 26.8 | 48% | 42 | 0 | 1011.6 | ||||||
| 01 | 12:00 | W 6 | 0.00 | NULL | NULL | 44.1 | 26.2 | 50% | 41 | 0 | 1011.8 | ||||||
| 01 | 11:00 | NW 8 | 0.00 | NULL | NULL | 43.5 | 26.4 | 51% | 39 | 0 | 1011.9 | ||||||
| 01 | 10:00 | NW 8 | 0.00 | NULL | NULL | 42.4 | 27.7 | 56% | 38 | 0 | 1011.8 | ||||||
| 01 | 09:00 | W 5 | 0.00 | NULL | NULL | 41.9 | 30.2 | 63% | 40 | 0 | 1011.4 | ||||||
| 01 | 08:00 | W 2 | 0.00 | NULL | NULL | 36.5 | 31.5 | 82% | 0 | 1011.5 | |||||||
| 01 | 07:00 | W 1 | 0.00 | NULL | NULL | 37 | 33.6 | 87% | 0 | 1011.3 | |||||||
| 01 | 06:00 | W 2 | 0.00 | NULL | NULL | 35.8 | 30.7 | 82% | 0 | 1010.5 | |||||||
| 01 | 05:00 | NW 5 | 0.00 | NULL | NULL | 37.6 | 31.8 | 80% | 35 | 0 | 1010.3 | ||||||
| 01 | 04:00 | N 5 | 0.00 | NULL | NULL | 38.3 | 32.9 | 81% | 35 | 0 | 1010.0 | ||||||
| 01 | 03:00 | NW 3 | 0.00 | NULL | NULL | 39.2 | 33.1 | 79% | 0 | 1009.8 | |||||||
| 01 | 02:00 | NW 3 | 0.00 | NULL | NULL | 41.2 | 34.2 | 76% | 0 | 1009.5 | |||||||
| 01 | 01:00 | NW 3 | 0.00 | NULL | NULL | 41.7 | 36.9 | 83% | 0 | 1009.4 | |||||||
| 01 | 00:00 | W 3 | 0.00 | NULL | NULL | 42.4 | 38.1 | 85% | 0 | 1009.4 | |||||||
| 30 | 23:00 | W 2 | 0.00 | NULL | NULL | 42.3 | 39.2 | 89% | 0 | 1009.6 | |||||||
| 30 | 22:00 | W 3 | 0.00 | NULL | NULL | 42.6 | 38.8 | 87% | 0 | 1009.7 | |||||||
| 30 | 21:00 | W 3 | 0.00 | NULL | NULL | 43.3 | 38.1 | 82% | 0 | 1009.6 | |||||||
| 30 | 20:00 | W 3 | 0.00 | NULL | NULL | 41.9 | 37.6 | 85% | 0 | 1008.9 | |||||||
| 30 | 19:00 | W 5 | 0.00 | NULL | NULL | 44.1 | 37.9 | 79% | 42 | 0 | 1008.4 | ||||||
| 30 | 18:00 | NW 5 | 0.00 | NULL | NULL | 45 | 39.4 | 81% | 43 | 0 | 1007.9 | ||||||
| 30 | 17:00 | NW 6 | 0.00 | NULL | NULL | 45.3 | 40.6 | 84% | 43 | 0 | 1007.4 | ||||||
| 30 | 16:00 | NW 6 | 0.00 | NULL | NULL | 46.2 | 42.3 | 86% | 44 | 0 | 1006.8 | ||||||
| 30 | 15:00 | NW 5 | 0.00 | NULL | NULL | 47.1 | 44.2 | 90% | 46 | 0 | 1006.7 | 0.01 | |||||
| 30 | 14:00 | NW 5 | 0.00 | NULL | NULL | 47.5 | 45.3 | 92% | 46 | 0 | 1006.3 | ||||||
| 30 | 13:00 | NW 5 | 0.00 | NULL | NULL | 47.3 | 45.7 | 94% | 46 | 0 | 1006.0 | ||||||
| 30 | 12:00 | W 3 | 0.00 | NULL | NULL | 47.1 | 45.7 | 95% | 0 | 1005.9 | 0.02 | ||||||
| 30 | 11:00 | S 3 | 0.00 | NULL | NULL | 49.3 | 48 | 95% | 0 | 1005.3 | |||||||
| 30 | 10:00 | S 6 | 0.00 | NULL | NULL | 48.7 | 47.5 | 95% | 47 | 0 | 1004.8 | ||||||
| 30 | 09:00 | SE 6 | 0.00 | NULL | NULL | 48.2 | 46.8 | 95% | 46 | 0 | 1004.8 | 0.02 | |||||
| 30 | 08:00 | SE 7 | 0.00 | NULL | NULL | 47.7 | 46 | 94% | 45 | 0 | 1004.3 | 0.01 | |||||
| 30 | 05:00 | SE 9 | 0.00 | NULL | NULL | 48 | 45.7 | 92% | 44 | 0 | 1004.4 | 0.03 | |||||
| 30 | 04:00 | SE 6 | 0.00 | NULL | NULL | 48.7 | 46 | 90% | 47 | 0 | 1004.6 | 0.01 | |||||
| 30 | 03:00 | SE 8 | 0.00 | NULL | NULL | 50.7 | 45.5 | 82% | 0 | 1004.9 | |||||||
| 30 | 02:00 | SE 7 | 0.00 | NULL | NULL | 54.7 | 41.9 | 62% | 0 | 1005.3 | |||||||
| 30 | 01:00 | SE 8 | 0.00 | NULL | NULL | 55.9 | 41.5 | 59% | 0 | 1006.1 | |||||||
| 30 | 00:00 | SE 8 | 0.00 | NULL | NULL | 55.9 | 42.1 | 60% | 0 | 1006.4 | |||||||
| 29 | 23:00 | SE 9 G 18 | 0.00 | NULL | NULL | 58.3 | 40.6 | 52% | 0 | 1006.4 | |||||||
| 29 | 22:00 | SE 7 | 0.00 | NULL | NULL | 59.7 | 40.6 | 49% | 0 | 1007.2 | |||||||
| 29 | 21:00 | SE 8 | 0.00 | NULL | NULL | 61.2 | 40.8 | 47% | 0 | 1007.3 | |||||||
| 29 | 20:00 | SE 8 | 0.00 | NULL | NULL | 62.8 | 41.4 | 46% | 0 | 1007.3 | |||||||
| 29 | 19:00 | SE 7 | 0.00 | NULL | NULL | 64.9 | 42.8 | 45% | 0 | 1006.9 | |||||||
| 29 | 18:00 | SE 7 | 0.00 | NULL | NULL | 67.1 | 42.6 | 41% | 0 | 1007.9 | |||||||
| 29 | 17:00 | S 6 | 0.00 | NULL | NULL | 67.6 | 42.4 | 40% | 0 | 1008.4 | |||||||
| 29 | 16:00 | S 6 | 0.00 | NULL | NULL | 66.7 | 42.4 | 41% | 0 | 1009.1 | |||||||
| 29 | 15:00 | SE 7 | 0.00 | NULL | NULL | 67.5 | 43.3 | 42% | 0 | 1009.9 | |||||||
| 29 | 14:00 | SE 5 | 0.00 | NULL | NULL | 66.2 | 41.9 | 41% | 0 | 1010.4 | |||||||
| Date | Time (edt) | Wind (mph) | Vis. (mi.) | Weather | Sky Cond. | Air | Dwpt | Max. | Min. | Relative Humidity | Wind Chill (°F) | Heat Index (°F) | altimeter (in) | sea level (mb) | 1 hr | 3 hr | 6 hr |
| 6 hour | |||||||||||||||||
| Temperature (ºF) | Pressure | Precipitation (in) | |||||||||||||||